Time;durP1;ratioP1;P1;durP2;ratioP2;P2;SDS_P1;SDS_P2;PMS_P1;PMS_P2;Temp;Humidity;BMP_temperature;BMP_pressure;BME280_temperature;BME280_humidity;BME280_pressure;Samples;Min_cycle;Max_cycle;Signal;HPM_P1;HPM_P2
2023/03/22 06:09:42;;;;;;;;;;;;;;;11.66;61.35;96797.47;4256624;27;10263;-79
2023/03/22 06:11:45;;;;;;;;;;;;;;;11.94;60.88;96789.44;4250951;27;5606;-74
2023/03/22 06:13:48;;;;;;;;;;;;;;;12.16;60.81;96792.72;4251779;27;5571;-76
2023/03/22 06:15:51;;;;;;;;;;;;;;;12.33;60.28;96793.13;4264211;27;5598;-73
2023/03/22 06:17:54;;;;;;;;;;;;;;;12.47;60.24;96792.94;4248027;27;5649;-71
2023/03/22 06:19:57;;;;;;;;;;;;;;;12.58;59.80;96796.81;4241930;27;5817;-72
2023/03/22 06:22:00;;;;;;;;;;;;;;;12.66;59.75;96791.28;4252707;27;5680;-73
2023/03/22 06:24:03;;;;;;;;;;;;;;;12.75;59.54;96789.22;4246013;27;5598;-74
2023/03/22 06:26:10;;;;;;;;;;;;;;;12.82;59.73;96795.34;4256030;27;5598;-70
2023/03/22 06:28:12;;;;;;;;;;;;;;;12.89;59.46;96801.44;4255349;27;5684;-72
2023/03/22 06:30:16;;;;;;;;;;;;;;;12.94;59.54;96799.00;4241791;27;5856;-78
2023/03/22 06:32:22;;;;;;;;;;;;;;;13.00;59.35;96802.63;4246608;27;5692;-79
2023/03/22 06:34:25;;;;;;;;;;;;;;;13.04;59.15;96799.38;4242984;27;5665;-79
2023/03/22 06:36:29;;;;;;;;;;;;;;;13.08;58.96;96789.16;4246799;27;5708;-72
2023/03/22 06:38:48;;;;;;;;;;;;;;;13.11;58.83;96794.84;4239571;27;5090;-78
2023/03/22 06:40:51;;;;;;;;;;;;;;;13.15;59.13;96789.97;4242868;27;5784;-75
2023/03/22 06:42:56;;;;;;;;;;;;;;;13.18;59.00;96788.72;4239619;27;5672;-80
2023/03/22 06:44:58;;;;;;;;;;;;;;;13.21;58.61;96794.44;4246750;27;5606;-72
2023/03/22 06:47:01;;;;;;;;;;;;;;;13.26;58.85;96792.00;4235827;27;5700;-72
2023/03/22 06:49:05;;;;;;;;;;;;;;;13.29;58.80;96794.22;4243306;27;5613;-73
2023/03/22 06:51:08;;;;;;;;;;;;;;;13.32;58.58;96785.00;4247758;27;5748;-72
2023/03/22 06:53:11;;;;;;;;;;;;;;;13.35;58.35;96793.38;4241290;27;5661;-72
2023/03/22 06:55:13;;;;;;;;;;;;;;;13.37;58.42;96795.84;4235755;27;5629;-72
2023/03/22 06:57:16;;;;;;;;;;;;;;;13.42;58.29;96787.22;4233899;27;5681;-73
2023/03/22 06:59:20;;;;;;;;;;;;;;;13.43;58.20;96783.53;4220414;28;5644;-72
2023/03/22 07:01:23;;;;;;;;;;;;;;;13.46;58.25;96791.06;4241248;27;5664;-72
2023/03/22 07:03:26;;;;;;;;;;;;;;;13.48;58.30;96787.22;4245890;27;5598;-72
2023/03/22 07:05:29;;;;;;;;;;;;;;;13.47;58.09;96782.91;4220776;28;5616;-71
2023/03/22 07:07:32;;;;;;;;;;;;;;;13.48;58.22;96786.38;4231588;27;5120;-72
2023/03/22 07:09:35;;;;;;;;;;;;;;;13.49;58.20;96790.69;4241420;27;7710;-72
2023/03/22 07:11:38;;;;;;;;;;;;;;;13.50;58.00;96795.78;4219104;28;5691;-71
2023/03/22 07:13:40;;;;;;;;;;;;;;;13.52;57.83;96798.22;4219126;28;5721;-71
2023/03/22 07:15:45;;;;;;;;;;;;;;;13.55;57.97;96795.13;4228062;28;5816;-72
2023/03/22 07:17:48;;;;;;;;;;;;;;;13.57;57.86;96790.41;4226199;27;5838;-72
2023/03/22 07:19:51;;;;;;;;;;;;;;;13.57;57.90;96801.03;4231126;27;5586;-71
2023/03/22 07:21:55;;;;;;;;;;;;;;;13.57;57.98;96796.53;4235943;28;5598;-71
2023/03/22 07:24:00;;;;;;;;;;;;;;;13.59;57.91;96804.28;4235863;28;5609;-72
2023/03/22 07:26:04;;;;;;;;;;;;;;;13.60;57.86;96798.78;4227371;28;5606;-72
2023/03/22 07:28:09;;;;;;;;;;;;;;;13.60;57.53;96801.44;4231697;28;5692;-72
2023/03/22 07:30:12;;;;;;;;;;;;;;;13.61;57.50;96803.06;4240516;27;5613;-72
2023/03/22 07:32:17;;;;;;;;;;;;;;;13.63;57.56;96809.00;4214727;28;5610;-72
2023/03/22 07:34:20;;;;;;;;;;;;;;;13.64;57.55;96799.19;4232578;27;5677;-71
2023/03/22 07:36:24;;;;;;;;;;;;;;;13.64;57.28;96800.00;4225136;28;5671;-71
2023/03/22 07:38:27;;;;;;;;;;;;;;;13.67;57.36;96801.41;4235998;28;5700;-72
2023/03/22 07:40:30;;;;;;;;;;;;;;;13.71;57.33;96802.63;4226686;28;5630;-72
2023/03/22 07:42:33;;;;;;;;;;;;;;;13.71;57.12;96807.94;4225775;27;5723;-73
2023/03/22 07:44:36;;;;;;;;;;;;;;;13.74;57.00;96804.84;4227806;27;5621;-73
2023/03/22 07:46:39;;;;;;;;;;;;;;;13.75;57.02;96806.47;4228330;27;5767;-73
2023/03/22 07:48:44;;;;;;;;;;;;;;;13.77;56.93;96801.75;4235935;28;5706;-73
2023/03/22 07:50:47;;;;;;;;;;;;;;;13.79;56.88;96802.34;4234811;28;5822;-73
2023/03/22 07:52:50;;;;;;;;;;;;;;;13.74;56.69;96802.19;4220638;28;5612;-73
2023/03/22 07:54:53;;;;;;;;;;;;;;;13.76;56.72;96810.75;4232893;27;5680;-73
2023/03/22 07:56:56;;;;;;;;;;;;;;;13.78;56.54;96806.03;4218477;28;5710;-73
2023/03/22 07:58:59;;;;;;;;;;;;;;;13.79;56.58;96815.63;4218432;28;5695;-72
2023/03/22 08:01:04;;;;;;;;;;;;;;;13.81;56.49;96813.56;4207459;28;6311;-73
2023/03/22 08:03:07;;;;;;;;;;;;;;;13.82;56.42;96817.91;4244872;27;5685;-73
2023/03/22 08:05:12;;;;;;;;;;;;;;;13.84;56.16;96826.47;4227686;27;5717;-72
2023/03/22 08:07:17;;;;;;;;;;;;;;;13.80;56.23;96814.59;4232195;27;5602;-71
2023/03/22 08:09:20;;;;;;;;;;;;;;;13.81;56.10;96816.22;4235625;28;5654;-73
2023/03/22 08:11:23;;;;;;;;;;;;;;;13.79;56.11;96818.28;4234650;27;5596;-73
2023/03/22 08:13:26;;;;;;;;;;;;;;;13.80;55.75;96819.91;4235741;28;5611;-73
2023/03/22 08:15:29;;;;;;;;;;;;;;;13.83;55.63;96821.38;4231448;27;5609;-73
2023/03/22 08:17:32;;;;;;;;;;;;;;;13.86;55.36;96818.28;4218804;28;5616;-72
2023/03/22 08:19:35;;;;;;;;;;;;;;;13.86;55.66;96812.97;4214676;28;5629;-71
2023/03/22 08:21:39;;;;;;;;;;;;;;;13.87;55.27;96818.06;4220677;27;5676;-73
2023/03/22 08:23:42;;;;;;;;;;;;;;;13.86;55.29;96821.75;4234506;27;5626;-72
2023/03/22 08:25:45;;;;;;;;;;;;;;;13.87;55.56;96817.25;4219528;27;5629;-72
2023/03/22 08:27:48;;;;;;;;;;;;;;;13.89;55.17;96829.28;4226352;27;5605;-72
2023/03/22 08:29:51;;;;;;;;;;;;;;;13.86;55.05;96820.94;4235374;28;5605;-72
2023/03/22 08:31:54;;;;;;;;;;;;;;;13.85;55.09;96820.13;4221215;27;5719;-72
2023/03/22 08:33:58;;;;;;;;;;;;;;;13.85;54.89;96820.13;4218683;28;5703;-72
2023/03/22 08:36:06;;;;;;;;;;;;;;;13.87;54.84;96811.94;4219058;27;5628;-72
2023/03/22 08:38:12;;;;;;;;;;;;;;;13.90;54.75;96819.47;4218608;28;5617;-72
2023/03/22 08:40:16;;;;;;;;;;;;;;;13.92;54.75;96814.75;4216829;28;5621;-72
2023/03/22 08:42:18;;;;;;;;;;;;;;;13.96;54.31;96816.78;4219369;27;5621;-72
2023/03/22 08:44:21;;;;;;;;;;;;;;;13.99;54.37;96815.53;4233353;27;5618;-71
2023/03/22 08:46:24;;;;;;;;;;;;;;;14.01;54.43;96816.13;4218541;28;5744;-72
2023/03/22 08:48:29;;;;;;;;;;;;;;;13.99;54.16;96813.69;4227664;27;5714;-72
2023/03/22 08:50:33;;;;;;;;;;;;;;;14.04;54.22;96806.91;4233791;27;5606;-74
2023/03/22 08:52:36;;;;;;;;;;;;;;;14.05;54.13;96812.03;4231745;27;5912;-74
2023/03/22 08:54:40;;;;;;;;;;;;;;;14.06;53.92;96807.53;4218253;28;5657;-75
2023/03/22 08:56:43;;;;;;;;;;;;;;;14.08;54.21;96805.47;4221941;27;6417;-74
2023/03/22 08:58:46;;;;;;;;;;;;;;;14.12;53.80;96810.13;4217979;28;5749;-74
2023/03/22 09:00:49;;;;;;;;;;;;;;;14.12;53.81;96796.84;4217716;28;6125;-74
2023/03/22 09:02:52;;;;;;;;;;;;;;;14.13;53.63;96802.97;4217917;28;5637;-74
2023/03/22 09:04:55;;;;;;;;;;;;;;;14.13;53.80;96803.78;4218056;28;5612;-74
2023/03/22 09:06:58;;;;;;;;;;;;;;;14.17;53.51;96801.53;4218163;28;5827;-75
2023/03/22 09:09:01;;;;;;;;;;;;;;;14.21;53.69;96806.19;4217768;28;5693;-74
2023/03/22 09:11:08;;;;;;;;;;;;;;;14.26;53.55;96808.19;4217931;28;5076;-73
2023/03/22 09:13:12;;;;;;;;;;;;;;;14.29;53.34;96813.09;4217946;28;7702;-73
2023/03/22 09:15:15;;;;;;;;;;;;;;;14.32;53.09;96811.84;4217654;28;5608;-73
2023/03/22 09:17:18;;;;;;;;;;;;;;;14.33;52.91;96811.63;4217864;28;5624;-73
2023/03/22 09:19:24;;;;;;;;;;;;;;;14.31;53.08;96811.03;4217667;28;5817;-74
2023/03/22 09:21:37;;;;;;;;;;;;;;;14.32;52.92;96810.00;4218025;28;5621;-74
2023/03/22 09:23:41;;;;;;;;;;;;;;;14.30;52.90;96817.38;4217752;28;5617;-73
2023/03/22 09:25:44;;;;;;;;;;;;;;;14.30;53.02;96813.91;4234676;28;5609;-74
2023/03/22 09:27:50;;;;;;;;;;;;;;;14.29;52.96;96818.41;4234397;28;5597;-74
2023/03/22 09:29:53;;;;;;;;;;;;;;;14.30;53.21;96805.94;4234218;28;6278;-73
2023/03/22 09:31:56;;;;;;;;;;;;;;;14.30;53.26;96808.59;4223582;28;5745;-73
2023/03/22 09:34:01;;;;;;;;;;;;;;;14.28;53.00;96798.16;4217491;28;5656;-73
2023/03/22 09:36:04;;;;;;;;;;;;;;;14.33;52.79;96803.66;4217575;28;5624;-74
2023/03/22 09:38:08;;;;;;;;;;;;;;;14.36;53.03;96800.53;4242132;27;5587;-74
2023/03/22 09:40:12;;;;;;;;;;;;;;;14.36;53.05;96799.72;4251380;27;5776;-74
2023/03/22 09:42:29;;;;;;;;;;;;;;;14.37;52.73;96799.50;4251752;27;5815;-74
2023/03/22 09:44:39;;;;;;;;;;;;;;;14.38;52.92;96790.50;4219027;27;5145;-77
2023/03/22 09:46:47;;;;;;;;;;;;;;;14.41;52.49;96781.28;4218290;28;5783;-74
2023/03/22 09:48:51;;;;;;;;;;;;;;;14.45;52.43;96783.31;4217955;28;5668;-75
2023/03/22 09:50:55;;;;;;;;;;;;;;;14.40;52.57;96775.16;4218546;28;5829;-75
2023/03/22 09:53:00;;;;;;;;;;;;;;;14.48;52.33;96768.75;4217793;28;5788;-75
2023/03/22 09:55:03;;;;;;;;;;;;;;;14.57;52.24;96778.91;4218174;28;5687;-74
2023/03/22 09:57:11;;;;;;;;;;;;;;;14.63;51.94;96781.75;4218160;28;5757;-74
2023/03/22 09:59:18;;;;;;;;;;;;;;;14.69;52.05;96778.19;4217404;28;5668;-74
2023/03/22 10:01:33;;;;;;;;;;;;;;;14.71;51.80;96782.25;4217560;28;5684;-74
2023/03/22 10:04:13;;;;;;;;;;;;;;;14.74;51.46;96773.06;4217687;28;5195;-74
2023/03/22 10:06:19;;;;;;;;;;;;;;;14.76;51.55;96765.66;4202262;28;5771;-74
2023/03/22 10:08:43;;;;;;;;;;;;;;;14.80;51.13;96774.81;4217356;28;5815;-74
2023/03/22 10:10:46;;;;;;;;;;;;;;;14.83;51.14;96771.72;4217405;28;5768;-74
2023/03/22 10:12:56;;;;;;;;;;;;;;;14.85;51.20;96775.81;4217514;28;5677;-74
2023/03/22 10:15:06;;;;;;;;;;;;;;;14.88;51.10;96777.19;4217176;28;5669;-74
2023/03/22 10:17:16;;;;;;;;;;;;;;;14.90;50.80;96771.66;4217555;28;5074;-74
2023/03/22 10:19:23;;;;;;;;;;;;;;;14.91;50.81;96774.09;4217428;28;5673;-75
2023/03/22 10:21:26;;;;;;;;;;;;;;;14.94;51.00;96768.31;4217471;28;5697;-74
2023/03/22 10:23:34;;;;;;;;;;;;;;;14.95;50.57;96769.97;4217574;28;5664;-74
2023/03/22 10:25:39;;;;;;;;;;;;;;;14.97;50.59;96772.41;4217391;28;5661;-75
2023/03/22 10:27:43;;;;;;;;;;;;;;;15.00;50.54;96767.44;4217317;28;5680;-74
2023/03/22 10:29:51;;;;;;;;;;;;;;;15.02;50.32;96760.03;4217124;28;6053;-74
2023/03/22 10:31:54;;;;;;;;;;;;;;;15.07;50.41;96762.88;4217195;28;5641;-75
2023/03/22 10:34:02;;;;;;;;;;;;;;;15.11;50.00;96763.22;4217103;28;5787;-75
2023/03/22 10:36:09;;;;;;;;;;;;;;;15.15;50.19;96759.88;4217427;28;5755;-75
2023/03/22 10:38:19;;;;;;;;;;;;;;;15.19;50.07;96760.28;4217258;28;5753;-74
2023/03/22 10:40:26;;;;;;;;;;;;;;;15.23;50.07;96761.44;4217237;28;5672;-74
2023/03/22 10:42:31;;;;;;;;;;;;;;;15.27;49.85;96762.63;4234094;27;6363;-74
2023/03/22 10:44:44;;;;;;;;;;;;;;;15.30;49.73;96756.06;4234670;27;5759;-74
2023/03/22 10:46:51;;;;;;;;;;;;;;;15.34;49.50;96754.56;4228914;28;5594;-74
2023/03/22 10:48:59;;;;;;;;;;;;;;;15.35;49.34;96748.19;4231088;28;5609;-74
2023/03/22 10:51:04;;;;;;;;;;;;;;;15.38;49.49;96751.22;4228335;28;5605;-75
2023/03/22 10:53:11;;;;;;;;;;;;;;;15.43;49.35;96743.38;4224735;28;5616;-75
2023/03/22 10:55:15;;;;;;;;;;;;;;;15.47;49.18;96745.59;4220507;28;6295;-74
2023/03/22 10:57:18;;;;;;;;;;;;;;;15.50;49.07;96750.47;4248534;27;5574;-75
2023/03/22 10:59:47;;;;;;;;;;;;;;;15.52;49.11;96743.88;4224741;27;5798;-74
2023/03/22 11:01:51;;;;;;;;;;;;;;;15.57;48.82;96745.88;4228363;28;5618;-75
2023/03/22 11:03:58;;;;;;;;;;;;;;;15.60;48.91;96746.25;4222499;28;5613;-75
2023/03/22 11:06:07;;;;;;;;;;;;;;;15.63;48.90;96732.50;4233939;28;5605;-75
2023/03/22 11:08:14;;;;;;;;;;;;;;;15.66;48.64;96734.69;4232705;28;5602;-75
2023/03/22 11:10:31;;;;;;;;;;;;;;;15.71;48.53;96732.16;4223103;28;6422;-75
2023/03/22 11:12:35;;;;;;;;;;;;;;;15.79;48.42;96719.56;4227787;28;5840;-75
2023/03/22 11:14:43;;;;;;;;;;;;;;;15.85;48.46;96718.63;4236923;28;6466;-74
2023/03/22 11:16:54;;;;;;;;;;;;;;;15.87;48.16;96709.38;4228403;28;5617;-75
2023/03/22 11:19:01;;;;;;;;;;;;;;;15.88;48.09;96710.19;4228323;28;6551;-75
2023/03/22 11:21:09;;;;;;;;;;;;;;;15.90;48.14;96710.78;4233127;28;5625;-74
2023/03/22 11:23:16;;;;;;;;;;;;;;;15.91;48.05;96707.06;4228445;28;5728;-75
2023/03/22 11:25:25;;;;;;;;;;;;;;;15.95;48.01;96710.88;4220007;28;5605;-74
2023/03/22 11:27:31;;;;;;;;;;;;;;;15.99;47.79;96706.75;4233990;27;5608;-75
2023/03/22 11:29:44;;;;;;;;;;;;;;;15.96;47.65;96708.00;4218522;28;5697;-75
2023/03/22 11:31:54;;;;;;;;;;;;;;;15.98;47.85;96705.94;4202577;28;5624;-75
2023/03/22 11:34:00;;;;;;;;;;;;;;;16.01;47.85;96700.13;4233754;28;5830;-76
2023/03/22 11:36:05;;;;;;;;;;;;;;;16.02;47.79;96701.75;4223137;28;5598;-75
2023/03/22 11:38:23;;;;;;;;;;;;;;;16.00;47.74;96701.19;4232255;28;5612;-76
2023/03/22 11:40:27;;;;;;;;;;;;;;;16.00;47.48;96698.50;4219700;28;5609;-75
2023/03/22 11:42:34;;;;;;;;;;;;;;;15.98;47.63;96697.13;4236540;27;5717;-76
2023/03/22 11:44:37;;;;;;;;;;;;;;;15.98;47.73;96694.47;4252824;27;5807;-75
2023/03/22 11:46:50;;;;;;;;;;;;;;;15.96;47.65;96697.31;4236432;27;5665;-75
2023/03/22 11:48:58;;;;;;;;;;;;;;;15.95;47.51;96686.91;4236391;27;5677;-75
2023/03/22 11:51:10;;;;;;;;;;;;;;;15.95;47.49;96689.56;4246403;27;5656;-75
2023/03/22 11:53:19;;;;;;;;;;;;;;;15.99;47.42;96690.75;4246183;27;5591;-75
2023/03/22 11:55:22;;;;;;;;;;;;;;;16.01;47.44;96678.00;4224187;27;6343;-74
2023/03/22 11:57:29;;;;;;;;;;;;;;;16.04;47.17;96671.38;4233002;27;5579;-74
2023/03/22 11:59:38;;;;;;;;;;;;;;;16.06;47.21;96680.75;4236670;27;5607;-75
2023/03/22 12:01:45;;;;;;;;;;;;;;;16.07;47.21;96677.06;4228266;28;5626;-74
2023/03/22 12:03:51;;;;;;;;;;;;;;;16.09;47.17;96668.84;4227701;28;5595;-74
2023/03/22 12:05:55;;;;;;;;;;;;;;;16.12;47.32;96674.53;4240860;27;5579;-74
2023/03/22 12:08:04;;;;;;;;;;;;;;;16.13;47.19;96662.81;4247011;27;5683;-74
2023/03/22 12:10:15;;;;;;;;;;;;;;;16.15;47.27;96667.91;4235739;27;5677;-74
2023/03/22 12:12:22;;;;;;;;;;;;;;;16.17;47.28;96666.63;4235779;27;5672;-76
2023/03/22 12:14:29;;;;;;;;;;;;;;;16.17;47.19;96655.97;4218873;28;5855;-74
2023/03/22 12:16:41;;;;;;;;;;;;;;;16.19;47.10;96653.88;4251347;27;5693;-75
2023/03/22 12:18:53;;;;;;;;;;;;;;;16.22;47.10;96648.09;4228369;28;5697;-77
2023/03/22 12:20:59;;;;;;;;;;;;;;;16.24;46.84;96648.66;4233386;28;5606;-76
2023/03/22 12:23:14;;;;;;;;;;;;;;;16.28;46.72;96641.81;4201040;28;5084;-76
2023/03/22 12:25:23;;;;;;;;;;;;;;;16.27;46.58;96634.06;4219104;28;5720;-76
2023/03/22 12:27:31;;;;;;;;;;;;;;;16.34;46.56;96636.63;4235360;27;5771;-75
2023/03/22 12:29:38;;;;;;;;;;;;;;;16.35;46.53;96647.03;4251483;27;5840;-75
2023/03/22 12:31:52;;;;;;;;;;;;;;;16.35;46.57;96628.38;4233610;28;5677;-76
2023/03/22 12:34:05;;;;;;;;;;;;;;;16.37;46.40;96636.13;4235704;27;5906;-76
2023/03/22 12:36:17;;;;;;;;;;;;;;;16.38;46.49;96632.41;4227109;27;5109;-75
2023/03/22 12:38:34;;;;;;;;;;;;;;;16.37;46.33;96626.28;4240655;27;6394;-76
2023/03/22 12:40:43;;;;;;;;;;;;;;;16.42;46.35;96630.91;4252474;27;5630;-76
2023/03/22 12:42:54;;;;;;;;;;;;;;;16.41;45.96;96619.41;4239107;27;5704;-75
2023/03/22 12:45:05;;;;;;;;;;;;;;;16.47;46.19;96621.16;4231806;27;5601;-75
2023/03/22 12:47:17;;;;;;;;;;;;;;;16.45;45.86;96614.44;4230615;27;5604;-76
2023/03/22 12:49:28;;;;;;;;;;;;;;;16.49;45.88;96612.91;4234245;27;5850;-75
2023/03/22 12:51:36;;;;;;;;;;;;;;;16.47;45.84;96601.69;4235233;27;5709;-79
2023/03/22 12:56:23;;;;;;;;;;;;;;;16.56;45.74;96600.28;4230693;27;5607;-78
2023/03/22 12:58:27;;;;;;;;;;;;;;;16.60;45.54;96598.75;4227067;27;5718;-78
2023/03/22 13:00:38;;;;;;;;;;;;;;;16.59;45.44;96600.59;4222729;27;5653;-79
2023/03/22 13:02:50;;;;;;;;;;;;;;;16.69;45.41;96604.56;4219470;28;5080;-79
2023/03/22 13:04:56;;;;;;;;;;;;;;;16.72;45.39;96602.22;4227680;27;5685;-79
2023/03/22 13:07:11;;;;;;;;;;;;;;;16.74;45.25;96600.13;4230285;27;5908;-79
2023/03/22 13:09:18;;;;;;;;;;;;;;;16.76;45.26;96590.03;4225241;27;7691;-78
2023/03/22 13:11:34;;;;;;;;;;;;;;;16.76;45.34;96579.38;4223481;28;5609;-80
2023/03/22 13:13:44;;;;;;;;;;;;;;;16.83;45.14;96590.69;4221952;27;5845;-77
2023/03/22 13:16:00;;;;;;;;;;;;;;;16.86;44.95;96584.06;4227390;27;6444;-79
2023/03/22 13:18:04;;;;;;;;;;;;;;;16.84;45.09;96581.63;4225645;27;5610;-79
2023/03/22 13:20:39;;;;;;;;;;;;;;;16.86;44.97;96584.06;4228080;27;5677;-80
2023/03/22 13:23:27;;;;;;;;;;;;;;;16.86;45.13;96582.22;4161708;28;5801;-79
2023/03/22 13:25:35;;;;;;;;;;;;;;;16.82;45.14;96562.38;4113703;28;5944;-78
2023/03/22 13:27:43;;;;;;;;;;;;;;;16.86;45.00;96574.19;4115776;28;5096;-79
2023/03/22 13:29:52;;;;;;;;;;;;;;;16.87;45.11;96567.84;4110177;28;5092;-79
2023/03/22 13:31:58;;;;;;;;;;;;;;;16.93;44.85;96563.38;4096894;28;5957;-77
2023/03/22 13:34:03;;;;;;;;;;;;;;;16.92;44.93;96558.28;4115186;28;5957;-78
2023/03/22 13:36:24;;;;;;;;;;;;;;;16.95;44.74;96558.63;4121466;28;5976;-78
2023/03/22 13:38:46;;;;;;;;;;;;;;;16.92;44.85;96545.75;4116881;28;5975;-79
2023/03/22 13:41:11;;;;;;;;;;;;;;;16.94;44.92;96540.97;4117508;28;5854;-80
2023/03/22 13:43:27;;;;;;;;;;;;;;;16.93;45.01;96541.22;4123006;28;5948;-78
2023/03/22 13:46:25;;;;;;;;;;;;;;;16.96;44.91;96532.72;4119273;28;5889;-83
2023/03/22 13:48:51;;;;;;;;;;;;;;;16.90;44.92;96520.34;4117225;28;6026;-79
2023/03/22 13:51:21;;;;;;;;;;;;;;;16.90;44.76;96523.00;4108126;28;6076;-82
2023/03/22 13:53:45;;;;;;;;;;;;;;;16.89;44.95;96508.84;4118239;28;5951;-78
2023/03/22 13:56:11;;;;;;;;;;;;;;;16.98;44.82;96522.59;4124052;28;5103;-79
2023/03/22 13:58:51;;;;;;;;;;;;;;;16.94;44.80;96514.28;4235489;27;6270;-81
2023/03/22 14:00:57;;;;;;;;;;;;;;;17.03;44.75;96520.03;4205514;28;5623;-79
2023/03/22 14:03:15;;;;;;;;;;;;;;;17.06;44.58;96520.38;4232479;27;5680;-77
2023/03/22 14:05:22;;;;;;;;;;;;;;;17.05;44.53;96507.25;4220614;27;5656;-77
2023/03/22 14:07:45;;;;;;;;;;;;;;;17.14;44.52;96527.19;4225386;27;5691;-78
2023/03/22 14:09:51;;;;;;;;;;;;;;;17.10;44.50;96518.00;4226983;27;5598;-78
2023/03/22 14:12:03;;;;;;;;;;;;;;;17.12;44.61;96518.59;4209673;28;7649;-77
2023/03/22 14:14:16;;;;;;;;;;;;;;;17.08;44.44;96518.25;4224403;27;5613;-78
2023/03/22 14:16:32;;;;;;;;;;;;;;;17.12;44.37;96518.59;4227662;27;5602;-79
2023/03/22 14:18:42;;;;;;;;;;;;;;;17.09;44.41;96513.72;4230787;28;5777;-78
2023/03/22 14:21:01;;;;;;;;;;;;;;;17.06;44.48;96506.19;4232738;27;5601;-83
2023/03/22 14:23:06;;;;;;;;;;;;;;;17.11;44.29;96509.78;4230510;27;5621;-79
2023/03/22 14:25:16;;;;;;;;;;;;;;;17.12;44.07;96507.91;4235683;27;5696;-78
2023/03/22 14:27:22;;;;;;;;;;;;;;;17.15;43.93;96507.44;4231402;27;5606;-78
2023/03/22 14:29:28;;;;;;;;;;;;;;;17.16;43.98;96504.50;4224689;28;5709;-76
2023/03/22 14:31:31;;;;;;;;;;;;;;;17.16;43.96;96507.19;4227893;27;5724;-79
2023/03/22 14:33:52;;;;;;;;;;;;;;;17.07;43.71;96489.13;4211349;28;5690;-79
2023/03/22 14:35:57;;;;;;;;;;;;;;;17.17;43.64;96498.13;4229923;27;5610;-79
2023/03/22 14:38:06;;;;;;;;;;;;;;;17.24;43.45;96492.63;4227895;27;5688;-78
2023/03/22 14:40:17;;;;;;;;;;;;;;;17.30;43.40;96488.97;4228742;27;5602;-78
2023/03/22 14:42:29;;;;;;;;;;;;;;;17.32;43.32;96489.53;4225543;27;5898;-78
2023/03/22 14:44:46;;;;;;;;;;;;;;;17.29;43.41;96484.69;4224835;27;5719;-79
2023/03/22 14:46:49;;;;;;;;;;;;;;;17.30;43.33;96488.97;4226645;28;5749;-80
2023/03/22 14:48:53;;;;;;;;;;;;;;;17.27;43.26;96480.63;4220768;27;5600;-78
2023/03/22 14:50:57;;;;;;;;;;;;;;;17.31;43.09;96484.44;4205717;28;6040;-79
2023/03/22 14:52:59;;;;;;;;;;;;;;;17.30;43.19;96478.28;4229113;27;5732;-78
2023/03/22 14:55:06;;;;;;;;;;;;;;;17.31;43.14;96473.75;4222466;27;5808;-77
2023/03/22 14:57:13;;;;;;;;;;;;;;;17.37;43.17;96476.28;4230643;27;5591;-76
2023/03/22 14:59:17;;;;;;;;;;;;;;;17.39;43.28;96463.47;4235718;27;5590;-76
2023/03/22 15:01:28;;;;;;;;;;;;;;;17.40;43.12;96467.75;4230993;27;5594;-75
2023/03/22 15:03:31;;;;;;;;;;;;;;;17.38;43.05;96458.38;4230195;27;5610;-76
2023/03/22 15:05:36;;;;;;;;;;;;;;;17.35;43.31;96459.69;4210310;28;6059;-77
2023/03/22 15:07:46;;;;;;;;;;;;;;;17.38;43.03;96459.19;4231194;27;6913;-76
2023/03/22 15:09:48;;;;;;;;;;;;;;;17.38;43.18;96451.16;4203555;28;5703;-76
2023/03/22 15:11:51;;;;;;;;;;;;;;;17.35;43.29;96453.53;4204109;28;5880;-76
2023/03/22 15:13:54;;;;;;;;;;;;;;;17.36;43.19;96447.94;4202693;28;5695;-77
2023/03/22 15:15:56;;;;;;;;;;;;;;;17.36;43.04;96445.25;4197675;28;5639;-77
2023/03/22 15:18:01;;;;;;;;;;;;;;;17.38;43.29;96440.47;4193902;28;5781;-77
2023/03/22 15:20:06;;;;;;;;;;;;;;;17.39;43.18;96436.75;4203320;28;5798;-76
2023/03/22 15:22:13;;;;;;;;;;;;;;;17.46;43.15;96441.94;4194974;28;5684;-78
2023/03/22 15:24:30;;;;;;;;;;;;;;;17.46;43.05;96439.28;4195001;28;5815;-77
2023/03/22 15:26:32;;;;;;;;;;;;;;;17.46;43.21;96439.28;4201284;28;5802;-78
2023/03/22 15:28:42;;;;;;;;;;;;;;;17.43;43.18;96431.72;4212020;28;5696;-79
2023/03/22 15:30:46;;;;;;;;;;;;;;;17.45;43.07;96435.78;4204863;28;5745;-80
2023/03/22 15:32:48;;;;;;;;;;;;;;;17.45;43.17;96433.13;4203691;28;5710;-79
2023/03/22 15:34:53;;;;;;;;;;;;;;;17.47;43.16;96432.88;4202680;28;6395;-78
2023/03/22 15:36:57;;;;;;;;;;;;;;;17.53;43.23;96433.72;4205558;28;5789;-79
2023/03/22 15:39:03;;;;;;;;;;;;;;;17.55;43.09;96428.94;4219854;28;5538;-80
2023/03/22 15:41:19;;;;;;;;;;;;;;;17.58;43.13;96423.13;4207307;28;7715;-79
2023/03/22 15:43:34;;;;;;;;;;;;;;;17.62;43.09;96422.38;4200594;28;5787;-79
2023/03/22 15:46:24;;;;;;;;;;;;;;;17.67;42.90;96427.00;4212247;28;5695;-79
2023/03/22 15:48:28;;;;;;;;;;;;;;;17.68;42.94;96423.28;4209977;28;5782;-78
2023/03/22 15:50:38;;;;;;;;;;;;;;;17.68;42.72;96423.28;4204143;28;6939;-78
2023/03/22 15:52:54;;;;;;;;;;;;;;;17.65;42.99;96419.22;4203995;28;5669;-79
2023/03/22 15:55:03;;;;;;;;;;;;;;;17.65;42.78;96421.88;4211812;28;6377;-79
2023/03/22 15:57:22;;;;;;;;;;;;;;;17.66;42.62;96423.50;4209055;28;5766;-79
2023/03/22 15:59:27;;;;;;;;;;;;;;;17.70;42.70;96423.88;4202790;28;5830;-78
2023/03/22 16:01:36;;;;;;;;;;;;;;;17.71;42.64;96425.47;4211527;28;5758;-79
2023/03/22 16:03:45;;;;;;;;;;;;;;;17.69;42.70;96427.59;4202863;28;5793;-79
2023/03/22 16:05:49;;;;;;;;;;;;;;;17.67;42.82;96427.81;4189247;28;5887;-80
2023/03/22 16:08:01;;;;;;;;;;;;;;;17.64;42.76;96422.94;4201406;28;7717;-79
2023/03/22 16:10:04;;;;;;;;;;;;;;;17.60;42.63;96424.50;4228039;28;5689;-78
2023/03/22 16:12:06;;;;;;;;;;;;;;;17.57;42.68;96425.00;4231424;28;5663;-79
2023/03/22 16:14:11;;;;;;;;;;;;;;;17.56;42.76;96433.25;4218118;28;5602;-78
2023/03/22 16:16:15;;;;;;;;;;;;;;;17.58;42.57;96431.97;4236533;28;5763;-78
2023/03/22 16:18:20;;;;;;;;;;;;;;;17.60;42.48;96429.03;4224424;28;5706;-79
2023/03/22 16:20:23;;;;;;;;;;;;;;;17.60;42.49;96429.03;4215221;28;5783;-78
2023/03/22 16:22:26;;;;;;;;;;;;;;;17.60;42.47;96429.03;4229491;28;5685;-79
2023/03/22 16:24:28;;;;;;;;;;;;;;;17.59;42.43;96436.25;4227776;28;5794;-79
2023/03/22 16:26:30;;;;;;;;;;;;;;;17.60;42.31;96429.84;4226627;28;5707;-80
2023/03/22 16:28:32;;;;;;;;;;;;;;;17.58;42.33;96429.28;4235901;28;5748;-80
2023/03/22 16:30:34;;;;;;;;;;;;;;;17.55;42.27;96442.31;4234777;28;5613;-79
2023/03/22 16:32:36;;;;;;;;;;;;;;;17.52;42.35;96434.78;4236095;27;5658;-78
2023/03/22 16:34:38;;;;;;;;;;;;;;;17.50;42.08;96435.03;4227277;28;5681;-79
2023/03/22 16:36:40;;;;;;;;;;;;;;;17.51;42.11;96446.53;4218947;28;5639;-79
2023/03/22 16:38:44;;;;;;;;;;;;;;;17.49;42.01;96445.97;4227056;28;5652;-80
2023/03/22 16:40:47;;;;;;;;;;;;;;;17.49;41.88;96448.66;4219199;28;5664;-78
2023/03/22 16:42:49;;;;;;;;;;;;;;;17.48;41.85;96444.38;4206606;28;5687;-79
2023/03/22 16:44:53;;;;;;;;;;;;;;;17.48;41.85;96450.50;4211835;28;5998;-78
2023/03/22 16:46:55;;;;;;;;;;;;;;;17.45;41.75;96451.81;4220636;28;6763;-77
2023/03/22 16:48:57;;;;;;;;;;;;;;;17.44;41.67;96452.03;4226969;28;5672;-78
2023/03/22 16:51:00;;;;;;;;;;;;;;;17.42;41.59;96451.47;4232522;28;5850;-78
2023/03/22 16:53:02;;;;;;;;;;;;;;;17.42;41.56;96457.63;4205613;28;7795;-78
2023/03/22 16:55:14;;;;;;;;;;;;;;;17.43;41.41;96459.25;4213891;28;5657;-78
2023/03/22 16:57:18;;;;;;;;;;;;;;;17.42;41.30;96460.31;4218871;28;5795;-80
2023/03/22 16:59:20;;;;;;;;;;;;;;;17.40;41.39;96462.41;4211600;28;5714;-79
2023/03/22 17:01:22;;;;;;;;;;;;;;;17.37;41.16;96462.91;4222161;28;5660;-79
2023/03/22 17:03:25;;;;;;;;;;;;;;;17.34;41.29;96462.59;4228849;28;5657;-79
2023/03/22 17:05:29;;;;;;;;;;;;;;;17.31;41.25;96458.53;4225493;28;5656;-79
2023/03/22 17:07:32;;;;;;;;;;;;;;;17.33;41.22;96464.47;4235780;28;7706;-79
2023/03/22 17:09:34;;;;;;;;;;;;;;;17.32;41.08;96460.16;4228089;28;5655;-79
2023/03/22 17:11:37;;;;;;;;;;;;;;;17.33;41.05;96467.13;4222435;28;5669;-79
2023/03/22 17:13:39;;;;;;;;;;;;;;;17.31;41.18;96468.41;4218349;28;5641;-79
2023/03/22 17:15:44;;;;;;;;;;;;;;;17.33;41.01;96469.00;4210224;28;5732;-78
2023/03/22 17:17:45;;;;;;;;;;;;;;;17.33;40.93;96467.13;4207873;28;5651;-79
2023/03/22 17:19:48;;;;;;;;;;;;;;;17.32;40.86;96465.50;4202040;28;5690;-79
2023/03/22 17:21:50;;;;;;;;;;;;;;;17.31;40.93;96465.75;4212160;28;5815;-80
2023/03/22 17:23:52;;;;;;;;;;;;;;;17.31;40.85;96469.22;4220565;28;5681;-80